< Typhoon 198101 1981 Season Typhoon 198103 >
Typhoon 198102 (GERALD)
General InformationTrack Information on Google MapsDetailed Wind InformationList of All Images || Disaster Info.ResourceGoogle EarthGE AnimationAtom FeedGeoJSON
Detalied Best Track (Time Zone = UTC)
Year Month Day Hour Lat. Long. Pressure (hPa) Wind (kt) Class Image Chart
1981 4 15 00 5.0 154.7 1004 0 2 Image Chart
1981 4 15 06 5.4 153.8 1000 0 2 Image Chart
1981 4 15 12 5.7 152.9 1000 0 2 Image Chart
1981 4 15 18 6.0 152.0 998 35 3 Image Chart
1981 4 16 00 6.3 151.2 996 40 3 Image Chart
1981 4 16 06 7.0 149.6 990 50 4 Image Chart
1981 4 16 12 7.7 148.0 985 55 4 Image Chart
1981 4 16 18 8.3 146.6 980 60 4 Image Chart
1981 4 17 00 9.0 146.2 985 60 4 Image Chart
1981 4 17 06 10.0 146.0 990 60 4 Image Chart
1981 4 17 12 11.0 145.9 990 50 4 Image Chart
1981 4 17 18 11.8 145.6 990 50 4 Image Chart
1981 4 18 00 12.2 145.7 990 45 3 Image Chart
1981 4 18 06 12.8 146.0 990 45 3 Image Chart
1981 4 18 12 13.4 146.3 990 45 3 Image Chart
1981 4 18 18 13.9 146.6 990 45 3 Image Chart
1981 4 19 00 14.6 147.0 992 45 3 Image Chart
1981 4 19 06 15.2 146.9 992 45 3 Image Chart
1981 4 19 12 15.3 146.7 992 45 3 Image Chart
1981 4 19 18 15.3 146.4 992 40 3 Image Chart
1981 4 20 00 15.3 146.1 992 45 3 Image Chart
1981 4 20 06 15.3 145.5 994 45 3 Image Chart
1981 4 20 12 16.0 145.0 998 0 2 Image Chart
1981 4 20 18 17.0 145.0 1000 0 2 Image Chart
1981 4 21 00 17.5 145.0 1004 0 2 Image Chart
1981 4 21 06 18.3 145.3 1004 0 2 Image Chart
1981 4 21 12 19.3 145.7 1004 0 2 Image Chart
1981 4 21 18 20.2 146.2 1004 0 2 Image Chart
1981 4 22 00 21.0 146.8 1008 0 2 Image Chart
1981 4 22 06 21.7 147.3 1010 0 2 Image Chart
1981 4 22 12 22.3 148.0 1010 0 2 Image Chart
1981 4 22 18 23.0 148.8 1010 0 2 Image Chart
1981 4 23 00 23.5 150.0 1010 0 2 Image Chart
1981 4 23 06 24.2 151.3 1010 0 2 Image Chart
1981 4 23 12 24.6 153.0 1012 0 2 Image Chart
1981 4 23 18 25.0 155.0 1012 0 2 Image Chart
Japan Meteorological Agency Best Track Data | Correction Date : 1992-10-21
< Typhoon 198101 1981 Season Typhoon 198103 >

Help